sensor_id;sensor_type;location;lat;lon;timestamp;temperature;humidity
36790;DHT22;22740;52.182;8.780;2024-03-02T00:04:28;6.90;99.90
36790;DHT22;22740;52.182;8.780;2024-03-02T00:10:39;6.80;99.90
36790;DHT22;22740;52.182;8.780;2024-03-02T00:16:42;6.80;99.90
36790;DHT22;22740;52.182;8.780;2024-03-02T00:22:44;6.70;99.90
36790;DHT22;22740;52.182;8.780;2024-03-02T00:28:48;6.70;99.90
36790;DHT22;22740;52.182;8.780;2024-03-02T00:34:52;6.60;99.90
36790;DHT22;22740;52.182;8.780;2024-03-02T00:40:54;6.60;99.90
36790;DHT22;22740;52.182;8.780;2024-03-02T00:46:56;6.60;99.90
36790;DHT22;22740;52.182;8.780;2024-03-02T00:52:57;6.60;99.90
36790;DHT22;22740;52.182;8.780;2024-03-02T00:58:59;6.60;99.90
36790;DHT22;22740;52.182;8.780;2024-03-02T01:05:01;6.60;99.90
36790;DHT22;22740;52.182;8.780;2024-03-02T01:11:03;6.70;99.90
36790;DHT22;22740;52.182;8.780;2024-03-02T01:17:05;6.70;99.90
36790;DHT22;22740;52.182;8.780;2024-03-02T01:23:07;6.70;99.90
36790;DHT22;22740;52.182;8.780;2024-03-02T01:29:09;6.70;99.90
36790;DHT22;22740;52.182;8.780;2024-03-02T01:35:11;6.70;99.90
36790;DHT22;22740;52.182;8.780;2024-03-02T01:41:12;6.70;99.90
36790;DHT22;22740;52.182;8.780;2024-03-02T01:47:14;6.80;99.90
36790;DHT22;22740;52.182;8.780;2024-03-02T01:53:16;6.70;99.90
36790;DHT22;22740;52.182;8.780;2024-03-02T01:59:18;6.60;99.90
36790;DHT22;22740;52.182;8.780;2024-03-02T02:05:20;6.60;99.90
36790;DHT22;22740;52.182;8.780;2024-03-02T02:11:22;6.50;99.90
36790;DHT22;22740;52.182;8.780;2024-03-02T02:17:24;6.50;99.90
36790;DHT22;22740;52.182;8.780;2024-03-02T02:23:26;6.40;99.90
36790;DHT22;22740;52.182;8.780;2024-03-02T02:29:27;6.40;99.90
36790;DHT22;22740;52.182;8.780;2024-03-02T02:35:29;6.40;99.90
36790;DHT22;22740;52.182;8.780;2024-03-02T02:41:31;6.30;99.90
36790;DHT22;22740;52.182;8.780;2024-03-02T02:47:33;6.30;99.90
36790;DHT22;22740;52.182;8.780;2024-03-02T02:53:37;6.20;99.90
36790;DHT22;22740;52.182;8.780;2024-03-02T02:59:42;6.20;99.90
36790;DHT22;22740;52.182;8.780;2024-03-02T03:05:43;6.30;99.90
36790;DHT22;22740;52.182;8.780;2024-03-02T03:11:45;6.30;99.90
36790;DHT22;22740;52.182;8.780;2024-03-02T03:17:47;6.30;99.90
36790;DHT22;22740;52.182;8.780;2024-03-02T03:23:49;6.40;99.90
36790;DHT22;22740;52.182;8.780;2024-03-02T03:29:51;6.30;99.90
36790;DHT22;22740;52.182;8.780;2024-03-02T03:35:53;6.40;99.90
36790;DHT22;22740;52.182;8.780;2024-03-02T03:41:55;6.50;99.90
36790;DHT22;22740;52.182;8.780;2024-03-02T03:47:57;6.50;99.90
36790;DHT22;22740;52.182;8.780;2024-03-02T03:53:59;6.50;99.90
36790;DHT22;22740;52.182;8.780;2024-03-02T04:00:01;6.50;99.90
36790;DHT22;22740;52.182;8.780;2024-03-02T04:06:03;6.60;99.90
36790;DHT22;22740;52.182;8.780;2024-03-02T04:12:05;6.60;99.90
36790;DHT22;22740;52.182;8.780;2024-03-02T04:18:07;6.50;99.90
36790;DHT22;22740;52.182;8.780;2024-03-02T04:24:09;6.60;99.90
36790;DHT22;22740;52.182;8.780;2024-03-02T04:30:11;6.40;99.90
36790;DHT22;22740;52.182;8.780;2024-03-02T04:36:13;6.40;99.90
36790;DHT22;22740;52.182;8.780;2024-03-02T04:42:15;6.40;99.90
36790;DHT22;22740;52.182;8.780;2024-03-02T04:48:17;6.40;99.90
36790;DHT22;22740;52.182;8.780;2024-03-02T04:54:19;6.40;99.90
36790;DHT22;22740;52.182;8.780;2024-03-02T05:00:22;6.40;99.90
36790;DHT22;22740;52.182;8.780;2024-03-02T05:06:24;6.40;99.90
36790;DHT22;22740;52.182;8.780;2024-03-02T05:12:26;6.40;99.90
36790;DHT22;22740;52.182;8.780;2024-03-02T05:18:50;6.40;99.90
36790;DHT22;22740;52.182;8.780;2024-03-02T05:24:52;6.40;99.90
36790;DHT22;22740;52.182;8.780;2024-03-02T05:30:54;6.40;99.90
36790;DHT22;22740;52.182;8.780;2024-03-02T05:36:56;6.40;99.90
36790;DHT22;22740;52.182;8.780;2024-03-02T05:42:59;6.30;99.90
36790;DHT22;22740;52.182;8.780;2024-03-02T05:49:01;6.40;99.90
36790;DHT22;22740;52.182;8.780;2024-03-02T05:55:03;6.30;99.90
36790;DHT22;22740;52.182;8.780;2024-03-02T06:01:06;6.30;99.90
36790;DHT22;22740;52.182;8.780;2024-03-02T06:07:08;6.30;99.90
36790;DHT22;22740;52.182;8.780;2024-03-02T06:13:10;6.30;99.90
36790;DHT22;22740;52.182;8.780;2024-03-02T06:19:12;6.30;99.90
36790;DHT22;22740;52.182;8.780;2024-03-02T06:25:14;6.40;99.90
36790;DHT22;22740;52.182;8.780;2024-03-02T06:31:16;6.40;99.90
36790;DHT22;22740;52.182;8.780;2024-03-02T06:37:17;6.40;99.90
36790;DHT22;22740;52.182;8.780;2024-03-02T06:43:19;6.40;99.90
36790;DHT22;22740;52.182;8.780;2024-03-02T06:49:24;6.40;99.90
36790;DHT22;22740;52.182;8.780;2024-03-02T06:55:26;6.40;99.90
36790;DHT22;22740;52.182;8.780;2024-03-02T07:01:28;6.50;99.90
36790;DHT22;22740;52.182;8.780;2024-03-02T07:07:30;6.60;99.90
36790;DHT22;22740;52.182;8.780;2024-03-02T07:13:32;6.70;99.90
36790;DHT22;22740;52.182;8.780;2024-03-02T07:19:34;6.80;99.90
36790;DHT22;22740;52.182;8.780;2024-03-02T07:25:35;6.80;99.90
36790;DHT22;22740;52.182;8.780;2024-03-02T07:31:40;6.80;99.90
36790;DHT22;22740;52.182;8.780;2024-03-02T07:37:42;6.80;99.90
36790;DHT22;22740;52.182;8.780;2024-03-02T07:43:44;6.80;99.90
36790;DHT22;22740;52.182;8.780;2024-03-02T07:49:46;6.90;99.90
36790;DHT22;22740;52.182;8.780;2024-03-02T07:55:48;6.90;99.90
36790;DHT22;22740;52.182;8.780;2024-03-02T08:01:50;7.00;99.90
36790;DHT22;22740;52.182;8.780;2024-03-02T08:07:53;7.00;99.90
36790;DHT22;22740;52.182;8.780;2024-03-02T08:13:55;7.20;99.90
36790;DHT22;22740;52.182;8.780;2024-03-02T08:19:57;7.50;99.90
36790;DHT22;22740;52.182;8.780;2024-03-02T08:25:59;7.80;99.90
36790;DHT22;22740;52.182;8.780;2024-03-02T08:32:01;8.00;99.90
36790;DHT22;22740;52.182;8.780;2024-03-02T08:38:03;8.00;99.90
36790;DHT22;22740;52.182;8.780;2024-03-02T08:44:06;8.10;99.90
36790;DHT22;22740;52.182;8.780;2024-03-02T08:50:08;8.20;99.90
36790;DHT22;22740;52.182;8.780;2024-03-02T08:56:10;8.40;99.90
36790;DHT22;22740;52.182;8.780;2024-03-02T09:02:13;8.80;99.90
36790;DHT22;22740;52.182;8.780;2024-03-02T09:08:15;9.10;99.90
36790;DHT22;22740;52.182;8.780;2024-03-02T09:14:16;9.20;99.90
36790;DHT22;22740;52.182;8.780;2024-03-02T09:20:18;9.50;99.90
36790;DHT22;22740;52.182;8.780;2024-03-02T09:26:20;9.90;99.90
36790;DHT22;22740;52.182;8.780;2024-03-02T09:32:22;10.10;99.90
36790;DHT22;22740;52.182;8.780;2024-03-02T09:38:25;9.90;99.90
36790;DHT22;22740;52.182;8.780;2024-03-02T09:44:27;10.00;99.90
36790;DHT22;22740;52.182;8.780;2024-03-02T09:50:28;10.10;99.90
36790;DHT22;22740;52.182;8.780;2024-03-02T09:56:30;10.00;99.90
36790;DHT22;22740;52.182;8.780;2024-03-02T10:02:32;10.00;99.90
36790;DHT22;22740;52.182;8.780;2024-03-02T10:08:43;10.20;99.90
36790;DHT22;22740;52.182;8.780;2024-03-02T10:15:03;10.50;99.90
36790;DHT22;22740;52.182;8.780;2024-03-02T10:21:13;10.60;99.90
36790;DHT22;22740;52.182;8.780;2024-03-02T10:33:17;10.80;99.90
36790;DHT22;22740;52.182;8.780;2024-03-02T10:39:19;11.00;99.90
36790;DHT22;22740;52.182;8.780;2024-03-02T10:45:21;10.90;99.90
36790;DHT22;22740;52.182;8.780;2024-03-02T10:51:27;11.10;99.90
36790;DHT22;22740;52.182;8.780;2024-03-02T10:57:33;11.40;99.90
36790;DHT22;22740;52.182;8.780;2024-03-02T11:03:39;11.60;99.90
36790;DHT22;22740;52.182;8.780;2024-03-02T11:09:48;11.50;99.90
36790;DHT22;22740;52.182;8.780;2024-03-02T11:15:55;11.50;99.90
36790;DHT22;22740;52.182;8.780;2024-03-02T11:22:02;11.60;99.90
36790;DHT22;22740;52.182;8.780;2024-03-02T11:28:07;11.70;99.90
36790;DHT22;22740;52.182;8.780;2024-03-02T11:34:32;11.70;99.90
36790;DHT22;22740;52.182;8.780;2024-03-02T11:40:35;11.90;99.90
36790;DHT22;22740;52.182;8.780;2024-03-02T11:46:39;12.10;99.90
36790;DHT22;22740;52.182;8.780;2024-03-02T11:52:42;12.10;99.90
36790;DHT22;22740;52.182;8.780;2024-03-02T11:58:45;12.20;99.90
36790;DHT22;22740;52.182;8.780;2024-03-02T12:04:48;12.20;99.90
36790;DHT22;22740;52.182;8.780;2024-03-02T12:11:00;12.50;99.90
36790;DHT22;22740;52.182;8.780;2024-03-02T12:17:05;12.80;99.90
36790;DHT22;22740;52.182;8.780;2024-03-02T12:23:07;12.80;99.90
36790;DHT22;22740;52.182;8.780;2024-03-02T12:29:09;12.80;99.90
36790;DHT22;22740;52.182;8.780;2024-03-02T12:35:12;12.90;99.90
36790;DHT22;22740;52.182;8.780;2024-03-02T12:41:19;12.90;99.90
36790;DHT22;22740;52.182;8.780;2024-03-02T12:47:21;13.20;99.90
36790;DHT22;22740;52.182;8.780;2024-03-02T12:53:23;13.00;99.90
36790;DHT22;22740;52.182;8.780;2024-03-02T12:59:26;13.00;99.90
36790;DHT22;22740;52.182;8.780;2024-03-02T13:05:31;12.90;99.90
36790;DHT22;22740;52.182;8.780;2024-03-02T13:11:34;13.10;99.90
36790;DHT22;22740;52.182;8.780;2024-03-02T13:17:35;13.10;99.90
36790;DHT22;22740;52.182;8.780;2024-03-02T13:23:39;13.30;99.90
36790;DHT22;22740;52.182;8.780;2024-03-02T13:29:42;13.40;99.90
36790;DHT22;22740;52.182;8.780;2024-03-02T13:35:44;13.60;99.90
36790;DHT22;22740;52.182;8.780;2024-03-02T13:41:45;13.50;99.90
36790;DHT22;22740;52.182;8.780;2024-03-02T13:47:54;13.50;99.90
36790;DHT22;22740;52.182;8.780;2024-03-02T13:53:56;13.50;99.90
36790;DHT22;22740;52.182;8.780;2024-03-02T13:59:57;13.50;99.90
36790;DHT22;22740;52.182;8.780;2024-03-02T14:05:59;13.60;99.90
36790;DHT22;22740;52.182;8.780;2024-03-02T14:12:01;13.50;99.90
36790;DHT22;22740;52.182;8.780;2024-03-02T14:18:05;13.50;99.90
36790;DHT22;22740;52.182;8.780;2024-03-02T14:24:07;13.50;99.90
36790;DHT22;22740;52.182;8.780;2024-03-02T14:30:09;13.50;99.90
36790;DHT22;22740;52.182;8.780;2024-03-02T14:36:11;13.50;99.90
36790;DHT22;22740;52.182;8.780;2024-03-02T14:42:13;13.60;99.90
36790;DHT22;22740;52.182;8.780;2024-03-02T14:48:15;13.50;99.90
36790;DHT22;22740;52.182;8.780;2024-03-02T14:54:17;13.40;99.90
36790;DHT22;22740;52.182;8.780;2024-03-02T15:00:19;13.30;99.90
36790;DHT22;22740;52.182;8.780;2024-03-02T15:06:21;13.30;99.90
36790;DHT22;22740;52.182;8.780;2024-03-02T15:12:23;13.30;99.90
36790;DHT22;22740;52.182;8.780;2024-03-02T15:18:25;13.30;99.90
36790;DHT22;22740;52.182;8.780;2024-03-02T15:24:27;13.20;99.90
36790;DHT22;22740;52.182;8.780;2024-03-02T15:30:29;13.10;99.90
36790;DHT22;22740;52.182;8.780;2024-03-02T15:36:31;13.20;99.90
36790;DHT22;22740;52.182;8.780;2024-03-02T15:42:34;13.20;99.90
36790;DHT22;22740;52.182;8.780;2024-03-02T15:48:36;13.20;99.90
36790;DHT22;22740;52.182;8.780;2024-03-02T15:54:38;13.00;99.90
36790;DHT22;22740;52.182;8.780;2024-03-02T16:00:40;12.90;99.90
36790;DHT22;22740;52.182;8.780;2024-03-02T16:06:42;12.80;99.90
36790;DHT22;22740;52.182;8.780;2024-03-02T16:12:44;12.80;99.90
36790;DHT22;22740;52.182;8.780;2024-03-02T16:18:46;12.60;99.90
36790;DHT22;22740;52.182;8.780;2024-03-02T16:24:48;12.40;99.90
36790;DHT22;22740;52.182;8.780;2024-03-02T16:30:50;12.30;99.90
36790;DHT22;22740;52.182;8.780;2024-03-02T16:36:52;12.10;99.90
36790;DHT22;22740;52.182;8.780;2024-03-02T16:42:54;12.00;99.90
36790;DHT22;22740;52.182;8.780;2024-03-02T16:48:56;11.90;99.90
36790;DHT22;22740;52.182;8.780;2024-03-02T16:54:58;11.90;99.90
36790;DHT22;22740;52.182;8.780;2024-03-02T17:01:05;11.70;99.90
36790;DHT22;22740;52.182;8.780;2024-03-02T17:07:07;11.60;99.90
36790;DHT22;22740;52.182;8.780;2024-03-02T17:13:09;11.50;99.90
36790;DHT22;22740;52.182;8.780;2024-03-02T17:19:11;11.20;99.90
36790;DHT22;22740;52.182;8.780;2024-03-02T17:25:13;11.10;99.90
36790;DHT22;22740;52.182;8.780;2024-03-02T17:31:15;11.00;99.90
36790;DHT22;22740;52.182;8.780;2024-03-02T17:37:16;10.80;99.90
36790;DHT22;22740;52.182;8.780;2024-03-02T17:43:18;10.80;99.90
36790;DHT22;22740;52.182;8.780;2024-03-02T17:49:20;10.50;99.90
36790;DHT22;22740;52.182;8.780;2024-03-02T17:55:22;10.20;99.90
36790;DHT22;22740;52.182;8.780;2024-03-02T18:01:24;10.00;99.90
36790;DHT22;22740;52.182;8.780;2024-03-02T18:07:26;9.70;99.90
36790;DHT22;22740;52.182;8.780;2024-03-02T18:13:28;9.70;99.90
36790;DHT22;22740;52.182;8.780;2024-03-02T18:19:31;9.70;99.90
36790;DHT22;22740;52.182;8.780;2024-03-02T18:25:33;9.70;99.90
36790;DHT22;22740;52.182;8.780;2024-03-02T18:31:35;9.60;99.90
36790;DHT22;22740;52.182;8.780;2024-03-02T18:37:37;9.30;99.90
36790;DHT22;22740;52.182;8.780;2024-03-02T18:43:39;9.30;99.90
36790;DHT22;22740;52.182;8.780;2024-03-02T18:49:44;9.20;99.90
36790;DHT22;22740;52.182;8.780;2024-03-02T18:55:48;9.10;99.90
36790;DHT22;22740;52.182;8.780;2024-03-02T19:01:51;8.90;99.90
36790;DHT22;22740;52.182;8.780;2024-03-02T19:07:53;9.00;99.90
36790;DHT22;22740;52.182;8.780;2024-03-02T19:13:55;8.90;99.90
36790;DHT22;22740;52.182;8.780;2024-03-02T19:19:58;8.90;99.90
36790;DHT22;22740;52.182;8.780;2024-03-02T19:26:00;9.00;99.90
36790;DHT22;22740;52.182;8.780;2024-03-02T19:32:03;8.90;99.90
36790;DHT22;22740;52.182;8.780;2024-03-02T19:38:13;8.90;99.90
36790;DHT22;22740;52.182;8.780;2024-03-02T19:44:15;9.00;99.90
36790;DHT22;22740;52.182;8.780;2024-03-02T19:50:17;9.10;99.90
36790;DHT22;22740;52.182;8.780;2024-03-02T19:56:20;9.30;99.90
36790;DHT22;22740;52.182;8.780;2024-03-02T20:02:21;9.20;99.90
36790;DHT22;22740;52.182;8.780;2024-03-02T20:08:28;9.20;99.90
36790;DHT22;22740;52.182;8.780;2024-03-02T20:14:31;9.10;99.90
36790;DHT22;22740;52.182;8.780;2024-03-02T20:20:32;9.20;99.90
36790;DHT22;22740;52.182;8.780;2024-03-02T20:26:34;9.40;99.90
36790;DHT22;22740;52.182;8.780;2024-03-02T20:32:36;9.70;99.90
36790;DHT22;22740;52.182;8.780;2024-03-02T20:38:40;9.70;99.90
36790;DHT22;22740;52.182;8.780;2024-03-02T20:44:42;9.70;99.90
36790;DHT22;22740;52.182;8.780;2024-03-02T20:50:44;9.60;99.90
36790;DHT22;22740;52.182;8.780;2024-03-02T20:56:49;9.50;99.90
36790;DHT22;22740;52.182;8.780;2024-03-02T21:02:53;9.50;99.90
36790;DHT22;22740;52.182;8.780;2024-03-02T21:08:55;9.40;99.90
36790;DHT22;22740;52.182;8.780;2024-03-02T21:14:57;9.40;99.90
36790;DHT22;22740;52.182;8.780;2024-03-02T21:20:59;9.20;99.90
36790;DHT22;22740;52.182;8.780;2024-03-02T21:27:00;9.20;99.90
36790;DHT22;22740;52.182;8.780;2024-03-02T21:33:03;9.30;99.90
36790;DHT22;22740;52.182;8.780;2024-03-02T21:39:08;9.50;99.90
36790;DHT22;22740;52.182;8.780;2024-03-02T21:45:10;9.60;99.90
36790;DHT22;22740;52.182;8.780;2024-03-02T21:51:15;9.60;99.90
36790;DHT22;22740;52.182;8.780;2024-03-02T21:57:17;9.60;99.90
36790;DHT22;22740;52.182;8.780;2024-03-02T22:03:22;9.60;99.90
36790;DHT22;22740;52.182;8.780;2024-03-02T22:09:24;9.70;99.90
36790;DHT22;22740;52.182;8.780;2024-03-02T22:15:26;9.60;99.90
36790;DHT22;22740;52.182;8.780;2024-03-02T22:21:28;9.60;99.90
36790;DHT22;22740;52.182;8.780;2024-03-02T22:27:30;9.50;99.90
36790;DHT22;22740;52.182;8.780;2024-03-02T22:33:32;9.50;99.90
36790;DHT22;22740;52.182;8.780;2024-03-02T22:39:34;9.40;99.90
36790;DHT22;22740;52.182;8.780;2024-03-02T22:45:36;9.30;99.90
36790;DHT22;22740;52.182;8.780;2024-03-02T22:51:37;9.20;99.90
36790;DHT22;22740;52.182;8.780;2024-03-02T22:57:40;9.00;99.90
36790;DHT22;22740;52.182;8.780;2024-03-02T23:03:42;9.30;99.90
36790;DHT22;22740;52.182;8.780;2024-03-02T23:09:45;9.30;99.90
36790;DHT22;22740;52.182;8.780;2024-03-02T23:15:47;9.30;99.90
36790;DHT22;22740;52.182;8.780;2024-03-02T23:21:49;9.60;99.90
36790;DHT22;22740;52.182;8.780;2024-03-02T23:27:51;9.70;99.90
36790;DHT22;22740;52.182;8.780;2024-03-02T23:33:55;9.50;99.90
36790;DHT22;22740;52.182;8.780;2024-03-02T23:39:57;8.90;99.90
36790;DHT22;22740;52.182;8.780;2024-03-02T23:46:04;8.70;99.90
36790;DHT22;22740;52.182;8.780;2024-03-02T23:52:06;8.50;99.90
36790;DHT22;22740;52.182;8.780;2024-03-02T23:58:08;8.30;99.90
